createdAt,value
2022-12-11T00:00:48.775Z,89.97
2022-12-11T00:03:17.608Z,90.13
2022-12-11T00:05:45.746Z,90.00
2022-12-11T00:08:13.612Z,89.57
2022-12-11T00:10:40.452Z,89.30
2022-12-11T00:13:06.857Z,90.41
2022-12-11T00:15:33.191Z,90.68
2022-12-11T00:18:00.018Z,90.47
2022-12-11T00:20:27.031Z,90.41
2022-12-11T00:22:53.343Z,90.16
2022-12-11T00:25:20.230Z,90.13
2022-12-11T00:27:47.144Z,90.80
2022-12-11T00:30:14.874Z,90.50
2022-12-11T00:32:41.422Z,90.22
2022-12-11T00:35:08.631Z,90.51
2022-12-11T00:37:35.338Z,90.62
2022-12-11T00:40:02.112Z,90.33
2022-12-11T00:42:28.524Z,90.12
2022-12-11T00:44:56.272Z,90.33
2022-12-11T00:47:22.912Z,91.36
2022-12-11T00:49:50.338Z,91.29
2022-12-11T00:52:17.789Z,91.99
2022-12-11T00:54:44.410Z,91.90
2022-12-11T00:57:10.806Z,91.53
2022-12-11T00:59:37.270Z,91.60
2022-12-11T01:02:04.493Z,91.49
2022-12-11T01:04:30.881Z,91.20
2022-12-11T01:06:57.226Z,90.79
2022-12-11T01:09:42.875Z,90.28
2022-12-11T01:12:09.227Z,90.64
2022-12-11T01:14:35.668Z,89.82
2022-12-11T01:17:02.410Z,89.41
2022-12-11T01:19:28.785Z,89.33
2022-12-11T01:21:55.147Z,89.45
2022-12-11T01:24:21.863Z,89.75
2022-12-11T01:26:48.570Z,89.78
2022-12-11T01:29:14.903Z,90.12
2022-12-11T01:31:41.290Z,90.24
2022-12-11T01:34:07.966Z,90.74
2022-12-11T01:36:34.295Z,90.94
2022-12-11T01:39:00.652Z,91.66
2022-12-11T01:41:27.427Z,91.24
2022-12-11T01:44:02.422Z,91.14
2022-12-11T01:46:29.472Z,90.78
2022-12-11T01:48:55.989Z,90.17
2022-12-11T01:51:24.089Z,89.80
2022-12-11T01:53:59.818Z,89.45
2022-12-11T01:56:27.562Z,89.76
2022-12-11T01:58:57.505Z,90.37
2022-12-11T02:01:37.207Z,89.55
2022-12-11T02:04:04.457Z,89.63
2022-12-11T02:06:39.928Z,90.09
2022-12-11T02:09:10.845Z,89.72
2022-12-11T02:12:10.190Z,90.15
2022-12-11T02:14:53.535Z,89.75
2022-12-11T02:17:28.864Z,90.02
2022-12-11T02:20:01.420Z,89.56
2022-12-11T02:22:52.774Z,90.07
2022-12-11T02:25:32.709Z,90.01
2022-12-11T02:28:20.847Z,89.80
2022-12-11T02:31:12.724Z,90.33
2022-12-11T02:33:46.078Z,89.53
2022-12-11T02:36:16.071Z,89.30
2022-12-11T02:38:50.930Z,88.63
2022-12-11T02:41:21.221Z,88.37
2022-12-11T02:43:51.046Z,87.94
2022-12-11T02:46:21.102Z,87.56
2022-12-11T02:48:51.231Z,88.18
2022-12-11T02:51:24.148Z,87.99
2022-12-11T02:53:53.646Z,87.88
2022-12-11T02:56:26.951Z,87.73
2022-12-11T02:59:02.865Z,86.84
2022-12-11T03:01:29.682Z,86.62
2022-12-11T03:03:57.923Z,86.13
2022-12-11T03:06:39.880Z,86.39
2022-12-11T03:09:06.967Z,86.59
2022-12-11T03:11:33.834Z,86.31
2022-12-11T03:14:02.775Z,86.01
2022-12-11T03:16:37.481Z,86.55
2022-12-11T03:19:10.515Z,86.39
2022-12-11T03:21:45.854Z,86.95
2022-12-11T03:24:22.407Z,86.83
2022-12-11T03:27:24.567Z,87.17
2022-12-11T03:29:59.502Z,86.56
2022-12-11T03:32:28.586Z,86.54
2022-12-11T03:35:08.831Z,85.90
2022-12-11T03:37:39.194Z,85.99
2022-12-11T03:40:12.490Z,85.73
2022-12-11T03:42:40.542Z,84.82
2022-12-11T03:45:08.778Z,85.24
2022-12-11T03:47:38.307Z,85.18
2022-12-11T03:50:07.299Z,85.02
2022-12-11T03:52:37.631Z,84.99
2022-12-11T03:55:09.535Z,85.71
2022-12-11T03:57:37.925Z,85.68
2022-12-11T04:00:07.716Z,85.00
2022-12-11T04:02:34.443Z,84.79
2022-12-11T04:05:00.825Z,85.75
2022-12-11T04:07:28.403Z,85.68
2022-12-11T04:09:55.531Z,85.63
2022-12-11T04:12:21.847Z,87.92
2022-12-11T04:15:03.977Z,87.23
2022-12-11T04:17:56.242Z,87.27
2022-12-11T04:20:41.437Z,87.31
2022-12-11T04:23:32.258Z,87.50
2022-12-11T04:26:13.375Z,87.42
2022-12-11T04:28:40.721Z,87.73
2022-12-11T04:31:11.521Z,87.92
2022-12-11T04:33:37.985Z,87.75
2022-12-11T04:36:04.548Z,88.39
2022-12-11T04:38:30.923Z,87.83
2022-12-11T04:41:07.362Z,87.59
2022-12-11T04:43:36.070Z,86.88
2022-12-11T04:46:11.403Z,86.39
2022-12-11T04:48:39.155Z,86.73
2022-12-11T04:51:06.739Z,86.98
2022-12-11T04:53:33.691Z,86.48
2022-12-11T04:56:00.042Z,86.54
2022-12-11T04:58:27.479Z,87.43
2022-12-11T05:00:53.875Z,87.00
2022-12-11T05:03:20.469Z,87.79
2022-12-11T05:05:52.429Z,86.91
2022-12-11T05:08:20.138Z,87.58
2022-12-11T05:10:58.905Z,87.22
2022-12-11T05:13:26.769Z,87.25
2022-12-11T05:15:53.397Z,88.00
2022-12-11T05:18:20.376Z,88.36
2022-12-11T05:20:58.351Z,88.53
2022-12-11T05:23:25.666Z,88.40
2022-12-11T05:25:53.954Z,88.23
2022-12-11T05:28:20.908Z,88.68
2022-12-11T05:30:47.716Z,88.58
2022-12-11T05:33:14.206Z,88.73
2022-12-11T05:35:47.033Z,88.56
2022-12-11T05:38:13.855Z,88.60
2022-12-11T05:40:40.255Z,87.92
2022-12-11T05:43:06.567Z,88.14
2022-12-11T05:45:33.400Z,88.18
2022-12-11T05:47:59.773Z,88.69
2022-12-11T05:50:26.138Z,88.64
2022-12-11T05:52:52.924Z,88.81
2022-12-11T05:55:19.247Z,88.89
2022-12-11T05:57:45.574Z,89.16
2022-12-11T06:00:13.023Z,88.74
2022-12-11T06:02:39.416Z,89.00
2022-12-11T06:05:06.186Z,89.11
2022-12-11T06:07:32.891Z,89.33
2022-12-11T06:09:59.220Z,89.57
2022-12-11T06:12:25.557Z,89.76
2022-12-11T06:14:51.880Z,90.01
2022-12-11T06:17:18.555Z,89.98
2022-12-11T06:19:44.875Z,89.16
2022-12-11T06:22:11.186Z,89.36
2022-12-11T06:24:38.026Z,89.03
2022-12-11T06:27:04.435Z,89.18
2022-12-11T06:29:30.772Z,89.21
2022-12-11T06:31:57.533Z,89.25
2022-12-11T06:34:23.939Z,88.65
2022-12-11T06:36:50.251Z,88.47
2022-12-11T06:39:16.878Z,88.84
2022-12-11T06:41:43.194Z,89.20
2022-12-11T06:44:10.293Z,89.53
2022-12-11T06:46:36.627Z,89.79
2022-12-11T06:49:03.093Z,89.66
2022-12-11T06:51:29.836Z,89.80
2022-12-11T06:53:57.083Z,89.87
2022-12-11T06:56:24.945Z,89.84
2022-12-11T06:58:52.411Z,89.89
2022-12-11T07:01:22.162Z,89.94
2022-12-11T07:03:49.120Z,90.08
2022-12-11T07:06:16.834Z,90.27
2022-12-11T07:08:43.542Z,90.69
2022-12-11T07:11:12.470Z,91.11
2022-12-11T07:13:39.267Z,90.91
2022-12-11T07:16:10.583Z,90.58
2022-12-11T07:18:42.583Z,90.40
2022-12-11T07:21:12.019Z,90.13
2022-12-11T07:23:38.515Z,90.69
2022-12-11T07:26:11.711Z,90.76
2022-12-11T07:28:38.658Z,90.43
2022-12-11T07:31:06.831Z,89.91
2022-12-11T07:33:34.393Z,90.11
2022-12-11T07:36:05.781Z,90.31
2022-12-11T07:38:32.407Z,90.21
2022-12-11T07:41:04.115Z,90.13
2022-12-11T07:43:30.498Z,90.04
2022-12-11T07:46:01.890Z,90.37
2022-12-11T07:48:28.333Z,89.89
2022-12-11T07:50:55.146Z,88.96
2022-12-11T07:53:21.453Z,89.08
2022-12-11T07:55:47.818Z,90.08
2022-12-11T07:58:14.748Z,89.84
2022-12-11T08:00:41.118Z,89.89
2022-12-11T08:03:07.506Z,89.68
2022-12-11T08:05:34.129Z,89.70
2022-12-11T08:08:00.509Z,90.01
2022-12-11T08:10:26.881Z,90.05
2022-12-11T08:12:53.602Z,86.53
2022-12-11T08:15:19.909Z,88.11
2022-12-11T08:17:46.205Z,87.58
2022-12-11T08:20:12.768Z,86.32
2022-12-11T08:22:39.164Z,86.66
2022-12-11T08:25:06.217Z,86.44
2022-12-11T08:27:32.886Z,87.78
2022-12-11T08:29:59.458Z,88.05
2022-12-11T08:32:25.773Z,87.76
2022-12-11T08:34:52.582Z,86.70
2022-12-11T08:37:19.242Z,87.36
2022-12-11T08:39:46.880Z,87.63
2022-12-11T08:42:13.197Z,87.77
2022-12-11T08:44:39.882Z,86.73
2022-12-11T08:47:06.282Z,86.13
2022-12-11T08:49:34.745Z,83.78
2022-12-11T08:52:02.802Z,83.79
2022-12-11T08:54:29.139Z,81.74
2022-12-11T08:56:58.104Z,81.24
2022-12-11T08:59:25.711Z,78.62
2022-12-11T09:01:52.275Z,77.28
2022-12-11T09:04:19.675Z,78.46
2022-12-11T09:06:46.026Z,77.33
2022-12-11T09:09:12.716Z,75.44
2022-12-11T09:11:39.638Z,74.31
2022-12-11T09:14:07.878Z,77.70
2022-12-11T09:16:37.835Z,77.88
2022-12-11T09:19:04.805Z,79.57
2022-12-11T09:21:31.203Z,78.00
2022-12-11T09:24:00.496Z,77.86
2022-12-11T09:26:28.532Z,73.40
2022-12-11T09:28:55.049Z,70.83
2022-12-11T09:31:33.726Z,74.30
2022-12-11T09:34:06.354Z,71.35
2022-12-11T09:36:34.167Z,67.41
2022-12-11T09:39:04.588Z,74.49
2022-12-11T09:41:37.513Z,76.18
2022-12-11T09:44:22.193Z,78.87
2022-12-11T09:46:49.991Z,78.79
2022-12-11T09:49:36.890Z,79.37
2022-12-11T09:52:10.632Z,79.63
2022-12-11T09:54:42.227Z,80.06
2022-12-11T09:57:29.113Z,80.83
2022-12-11T10:00:13.835Z,81.24
2022-12-11T10:02:43.646Z,81.87
2022-12-11T10:05:42.612Z,83.85
2022-12-11T10:08:24.208Z,83.34
2022-12-11T10:10:56.909Z,83.12
2022-12-11T10:13:33.145Z,83.65
2022-12-11T10:16:38.350Z,83.13
2022-12-11T10:19:05.470Z,82.36
2022-12-11T10:21:40.018Z,81.75
2022-12-11T10:24:40.787Z,80.35
2022-12-11T10:27:23.831Z,80.60
2022-12-11T10:30:15.918Z,81.33
2022-12-11T10:32:46.115Z,81.60
2022-12-11T10:35:31.761Z,81.33
2022-12-11T10:38:12.857Z,81.78
2022-12-11T10:40:45.616Z,81.26
2022-12-11T10:43:12.485Z,80.81
2022-12-11T10:45:39.271Z,81.21
2022-12-11T10:48:14.687Z,80.91
2022-12-11T10:50:46.220Z,81.59
2022-12-11T10:53:22.275Z,81.62
2022-12-11T10:55:49.822Z,80.95
2022-12-11T10:58:19.980Z,81.01
2022-12-11T11:00:49.313Z,80.74
2022-12-11T11:03:25.846Z,80.31
2022-12-11T11:06:04.130Z,80.45
2022-12-11T11:08:40.239Z,79.05
2022-12-11T11:11:08.886Z,78.98
2022-12-11T11:13:35.531Z,78.70
2022-12-11T11:16:10.010Z,78.99
2022-12-11T11:18:37.256Z,79.33
2022-12-11T11:21:03.834Z,77.47
2022-12-11T11:23:30.260Z,78.10
2022-12-11T11:26:00.406Z,76.94
2022-12-11T11:28:34.911Z,77.82
2022-12-11T11:31:16.572Z,77.49
2022-12-11T11:33:56.733Z,78.31
2022-12-11T11:36:28.757Z,77.84
2022-12-11T11:39:19.534Z,75.84
2022-12-11T11:42:07.843Z,74.67
2022-12-11T11:44:40.340Z,71.51
2022-12-11T11:47:17.333Z,73.25
2022-12-11T11:50:03.694Z,75.29
2022-12-11T11:52:46.450Z,76.30
2022-12-11T11:55:32.966Z,77.02
2022-12-11T11:58:22.854Z,77.62
2022-12-11T12:00:53.429Z,77.98
2022-12-11T12:03:22.836Z,75.54
2022-12-11T12:06:15.308Z,73.92
2022-12-11T12:09:05.814Z,75.67
2022-12-11T12:11:43.115Z,79.16
2022-12-11T12:20:58.380Z,82.05
2022-12-11T12:23:36.648Z,82.42
2022-12-11T12:26:22.366Z,83.19
2022-12-11T12:29:02.968Z,83.60
2022-12-11T12:31:40.889Z,83.35
2022-12-11T12:34:17.561Z,84.76
2022-12-11T12:37:11.795Z,85.86
2022-12-11T12:39:38.062Z,85.91
2022-12-11T12:42:08.132Z,86.43
2022-12-11T12:44:49.542Z,85.83
2022-12-11T12:47:18.555Z,86.01
2022-12-11T12:49:47.130Z,85.83
2022-12-11T12:52:19.330Z,86.20
2022-12-11T12:55:08.584Z,85.70
2022-12-11T12:57:38.147Z,86.60
2022-12-11T13:00:12.597Z,86.73
2022-12-11T13:02:51.194Z,87.24
2022-12-11T13:05:27.314Z,87.84
2022-12-11T13:07:59.515Z,87.48
2022-12-11T13:10:34.675Z,87.92
2022-12-11T13:13:03.614Z,87.40
2022-12-11T13:15:34.735Z,87.84
2022-12-11T13:18:05.318Z,86.06
2022-12-11T13:20:33.399Z,87.50
2022-12-11T13:23:06.216Z,88.53
2022-12-11T13:25:46.574Z,88.70
2022-12-11T13:28:47.845Z,88.19
2022-12-11T13:31:14.204Z,88.51
2022-12-11T13:33:50.287Z,87.89
2022-12-11T13:36:24.413Z,86.73
2022-12-11T13:39:02.454Z,86.13
2022-12-11T13:41:32.240Z,84.28
2022-12-11T13:43:59.706Z,82.29
2022-12-11T13:46:30.289Z,81.16
2022-12-11T13:49:00.784Z,79.41
2022-12-11T13:51:30.119Z,79.06
2022-12-11T13:54:17.700Z,78.05
2022-12-11T13:57:07.586Z,78.06
2022-12-11T13:59:37.366Z,79.05
2022-12-11T14:02:13.217Z,79.34
2022-12-11T14:04:40.910Z,79.42
2022-12-11T14:07:11.529Z,78.27
2022-12-11T14:09:43.638Z,78.23
2022-12-11T14:12:20.175Z,78.11
2022-12-11T14:14:51.813Z,78.46
2022-12-11T14:17:28.160Z,79.08
2022-12-11T14:19:57.633Z,79.22
2022-12-11T14:22:27.590Z,78.80
2022-12-11T14:25:00.040Z,79.59
2022-12-11T14:27:28.014Z,78.85
2022-12-11T14:29:55.094Z,79.27
2022-12-11T14:32:43.538Z,80.06
2022-12-11T14:35:22.859Z,79.55
2022-12-11T14:37:50.003Z,79.40
2022-12-11T14:40:20.065Z,79.19
2022-12-11T14:42:55.663Z,79.04
2022-12-11T14:45:33.075Z,78.38
2022-12-11T14:48:02.478Z,78.35
2022-12-11T14:50:43.756Z,78.18
2022-12-11T14:53:15.637Z,78.53
2022-12-11T14:55:42.290Z,78.70
2022-12-11T14:58:23.575Z,79.04
2022-12-11T15:00:59.091Z,79.26
2022-12-11T15:03:34.535Z,79.81
2022-12-11T15:06:01.982Z,79.29
2022-12-11T15:08:34.485Z,79.32
2022-12-11T15:11:02.837Z,80.25
2022-12-11T15:13:29.535Z,79.96
2022-12-11T15:15:56.520Z,80.69
2022-12-11T15:18:29.006Z,81.28
2022-12-11T15:21:01.585Z,81.31
2022-12-11T15:23:29.079Z,81.76
2022-12-11T15:26:00.910Z,82.00
2022-12-11T15:28:31.822Z,82.12
2022-12-11T15:31:01.134Z,81.77
2022-12-11T15:33:32.648Z,82.32
2022-12-11T15:36:04.886Z,82.37
2022-12-11T15:38:40.695Z,82.64
2022-12-11T15:41:14.611Z,83.76
2022-12-11T15:43:41.432Z,83.48
2022-12-11T15:46:07.819Z,83.59
2022-12-11T15:48:34.800Z,84.56
2022-12-11T15:51:01.153Z,84.25
2022-12-11T15:53:27.547Z,83.89
2022-12-11T15:55:54.566Z,84.90
2022-12-11T15:58:24.062Z,84.96
2022-12-11T16:00:50.754Z,85.42
2022-12-11T16:03:19.500Z,85.22
2022-12-11T16:05:46.655Z,85.11
2022-12-11T16:08:15.189Z,86.39
2022-12-11T16:10:43.669Z,86.09
2022-12-11T16:13:14.196Z,85.65
2022-12-11T16:15:42.992Z,86.00
2022-12-11T16:18:12.594Z,86.06
2022-12-11T16:20:40.912Z,86.36
2022-12-11T16:23:07.997Z,86.47
2022-12-11T16:25:37.186Z,86.31
2022-12-11T16:28:03.698Z,86.00
2022-12-11T16:30:30.112Z,85.98
2022-12-11T16:32:57.079Z,85.41
2022-12-11T16:35:23.445Z,85.83
2022-12-11T16:37:53.972Z,86.06
2022-12-11T16:40:21.158Z,85.56
2022-12-11T16:42:49.717Z,85.33
2022-12-11T16:45:19.978Z,85.63
2022-12-11T16:47:46.804Z,85.79
2022-12-11T16:50:15.342Z,85.29
2022-12-11T16:52:42.587Z,85.54
2022-12-11T16:55:11.847Z,85.33
2022-12-11T16:57:39.030Z,85.34
2022-12-11T17:00:07.579Z,85.84
2022-12-11T17:02:34.354Z,85.82
2022-12-11T17:05:00.781Z,86.31
2022-12-11T17:07:27.736Z,86.36
2022-12-11T17:09:54.071Z,86.26
2022-12-11T17:12:25.748Z,86.43
2022-12-11T17:14:52.581Z,87.27
2022-12-11T17:17:18.896Z,86.87
2022-12-11T17:19:45.216Z,87.23
2022-12-11T17:22:12.079Z,87.34
2022-12-11T17:24:38.406Z,86.88
2022-12-11T17:27:04.718Z,86.47
2022-12-11T17:29:32.080Z,86.45
2022-12-11T17:31:58.658Z,86.42
2022-12-11T17:34:25.051Z,86.56
2022-12-11T17:36:52.257Z,86.43
2022-12-11T17:39:18.606Z,86.84
2022-12-11T17:41:44.913Z,86.57
2022-12-11T17:44:11.630Z,86.20
2022-12-11T17:46:38.066Z,86.14
2022-12-11T17:49:05.276Z,87.21
2022-12-11T17:51:31.695Z,87.55
2022-12-11T17:53:58.434Z,86.97
2022-12-11T17:56:24.916Z,86.90
2022-12-11T17:58:51.480Z,86.80
2022-12-11T18:01:18.526Z,87.43
2022-12-11T18:03:45.411Z,87.47
2022-12-11T18:06:14.695Z,87.21
2022-12-11T18:08:41.575Z,87.82
2022-12-11T18:11:14.347Z,88.56
2022-12-11T18:13:41.993Z,88.73
2022-12-11T18:16:12.200Z,89.06
2022-12-11T18:18:39.319Z,88.29
2022-12-11T18:21:06.247Z,87.79
2022-12-11T18:23:32.984Z,88.30
2022-12-11T18:25:59.932Z,87.72
2022-12-11T18:28:26.280Z,88.84
2022-12-11T18:30:52.707Z,88.82
2022-12-11T18:33:19.539Z,88.17
2022-12-11T18:35:45.888Z,88.89
2022-12-11T18:38:12.880Z,89.17
2022-12-11T18:40:39.236Z,88.96
2022-12-11T18:43:05.565Z,89.36
2022-12-11T18:45:32.588Z,88.96
2022-12-11T18:47:59.047Z,88.97
2022-12-11T18:50:25.843Z,88.88
2022-12-11T18:52:54.177Z,88.52
2022-12-11T18:55:20.823Z,88.73
2022-12-11T18:57:47.266Z,89.09
2022-12-11T19:00:14.767Z,89.41
2022-12-11T19:02:41.080Z,89.45
2022-12-11T19:05:07.761Z,89.41
2022-12-11T19:07:34.554Z,89.32
2022-12-11T19:10:01.000Z,89.20
2022-12-11T19:12:27.349Z,88.96
2022-12-11T19:14:54.962Z,89.24
2022-12-11T19:17:21.286Z,88.67
2022-12-11T19:19:47.704Z,88.95
2022-12-11T19:22:15.174Z,89.04
2022-12-11T19:24:42.000Z,88.52
2022-12-11T19:27:13.253Z,88.51
2022-12-11T19:29:40.189Z,88.30
2022-12-11T19:32:07.055Z,88.36
2022-12-11T19:34:33.498Z,88.14
2022-12-11T19:37:00.106Z,87.96
2022-12-11T19:39:26.934Z,88.44
2022-12-11T19:41:53.239Z,88.16
2022-12-11T19:44:19.581Z,88.03
2022-12-11T19:46:46.445Z,87.16
2022-12-11T19:49:13.141Z,87.21
2022-12-11T19:51:41.642Z,87.78
2022-12-11T19:54:11.199Z,87.81
2022-12-11T19:56:38.394Z,88.53
2022-12-11T19:59:07.007Z,89.02
2022-12-11T20:01:35.836Z,88.62
2022-12-11T20:04:13.921Z,88.16
2022-12-11T20:06:43.420Z,88.36
2022-12-11T20:09:11.786Z,87.74
2022-12-11T20:11:44.037Z,87.78
2022-12-11T20:14:18.668Z,87.63
2022-12-11T20:17:10.098Z,88.78
2022-12-11T20:19:32.783Z,88.64
2022-12-11T20:21:59.355Z,88.21
2022-12-11T20:24:26.099Z,88.33
2022-12-11T20:26:54.665Z,88.35
2022-12-11T20:29:21.005Z,88.84
2022-12-11T20:31:50.054Z,88.34
2022-12-11T20:34:16.663Z,88.88
2022-12-11T20:36:43.005Z,88.82
2022-12-11T20:39:09.950Z,88.25
2022-12-11T20:41:36.905Z,88.66
2022-12-11T20:44:03.285Z,88.44
2022-12-11T20:46:29.586Z,88.42
2022-12-11T20:48:58.805Z,88.12
2022-12-11T20:51:26.694Z,88.26
2022-12-11T20:54:01.433Z,88.27
2022-12-11T20:56:29.768Z,88.21
2022-12-11T20:58:57.211Z,88.38
2022-12-11T21:01:26.473Z,88.05
2022-12-11T21:03:53.450Z,88.48
2022-12-11T21:06:22.466Z,88.31
2022-12-11T21:08:49.482Z,87.93
2022-12-11T21:11:16.266Z,87.87
2022-12-11T21:13:42.725Z,88.13
2022-12-11T21:16:10.687Z,87.91
2022-12-11T21:18:37.711Z,88.48
2022-12-11T21:21:04.322Z,88.33
2022-12-11T21:23:31.170Z,88.16
2022-12-11T21:25:57.527Z,88.10
2022-12-11T21:28:23.860Z,88.16
2022-12-11T21:30:50.875Z,87.93
2022-12-11T21:33:17.472Z,88.32
2022-12-11T21:35:43.945Z,88.90
2022-12-11T21:38:10.708Z,88.53
2022-12-11T21:40:37.033Z,87.80
2022-12-11T21:43:03.795Z,87.81
2022-12-11T21:48:17.015Z,88.17
2022-12-11T21:50:43.341Z,88.47
2022-12-11T21:53:09.780Z,88.48
2022-12-11T21:55:40.630Z,88.07
2022-12-11T21:58:07.008Z,88.12
2022-12-11T22:00:36.157Z,87.89
2022-12-11T22:03:02.773Z,87.50
2022-12-11T22:05:29.134Z,88.16
2022-12-11T22:07:55.500Z,87.30
2022-12-11T22:10:22.083Z,87.28
2022-12-11T22:12:48.425Z,87.38
2022-12-11T22:15:14.999Z,87.93
2022-12-11T22:17:41.901Z,88.13
2022-12-11T22:20:08.970Z,88.29
2022-12-11T22:22:35.290Z,88.12
2022-12-11T22:25:03.930Z,88.65
2022-12-11T22:27:30.302Z,87.92
2022-12-11T22:29:56.597Z,87.81
2022-12-11T22:32:23.819Z,87.72
2022-12-11T22:34:50.136Z,88.20
2022-12-11T22:37:16.485Z,88.93
2022-12-11T22:39:43.222Z,88.28
2022-12-11T22:42:09.563Z,87.37
2022-12-11T22:44:35.881Z,87.50
2022-12-11T22:47:02.635Z,87.44
2022-12-11T22:49:29.019Z,87.82
2022-12-11T22:51:57.198Z,88.69
2022-12-11T22:54:25.093Z,88.49
2022-12-11T22:56:51.441Z,88.28
2022-12-11T22:59:17.843Z,88.18
2022-12-11T23:01:44.729Z,88.88
2022-12-11T23:04:11.061Z,88.24
2022-12-11T23:06:37.566Z,88.30
2022-12-11T23:09:04.961Z,87.64
2022-12-11T23:11:36.888Z,87.25
2022-12-11T23:14:05.061Z,86.99
2022-12-11T23:16:31.703Z,87.13
2022-12-11T23:18:58.470Z,87.32
2022-12-11T23:21:26.982Z,87.06
2022-12-11T23:23:54.211Z,87.33
2022-12-11T23:26:22.576Z,87.77
2022-12-11T23:28:50.063Z,88.04
2022-12-11T23:31:17.194Z,88.60
2022-12-11T23:33:43.699Z,88.09
2022-12-11T23:36:11.333Z,87.93
2022-12-11T23:38:38.312Z,87.91
2022-12-11T23:41:06.043Z,87.81
2022-12-11T23:43:35.021Z,87.28
2022-12-11T23:46:02.988Z,87.40
2022-12-11T23:48:29.394Z,88.03
2022-12-11T23:51:00.540Z,87.70
2022-12-11T23:53:28.729Z,87.62
2022-12-11T23:55:55.812Z,87.19
2022-12-11T23:58:22.348Z,87.18
